Terminal Aerodrome Forecast
Issued by NWS Duluth, MN

Current Version | Previous Version | Text Only | Print | Product List | Glossary On
Versions: 1 2 3 4 5 6 7 8 9 10 11 12 13 14 15
000
FTUS43 KDLH 290520
TAFDLH
TAF
KDLH 290520Z 2906/3006 VRB05KT P6SM BKN100
     FM291500 07010KT P6SM SCT060
     FM300000 06007KT P6SM SCT050=

USA.gov is the U.S. government's official web portal to all federal, state and local government web resources and services.